createdAt,value
2023-04-02T00:00:30.892Z,4.90
2023-04-02T00:01:30.832Z,4.50
2023-04-02T00:02:31.064Z,4.60
2023-04-02T00:03:30.904Z,4.60
2023-04-02T00:04:30.814Z,4.20
2023-04-02T00:05:30.840Z,4.40
2023-04-02T00:06:30.775Z,3.90
2023-04-02T00:07:30.878Z,4.50
2023-04-02T00:08:30.760Z,4.30
2023-04-02T00:09:30.739Z,4.50
2023-04-02T00:10:30.733Z,4.50
2023-04-02T00:11:30.753Z,4.40
2023-04-02T00:12:30.705Z,4.90
2023-04-02T00:13:30.691Z,4.30
2023-04-02T00:14:30.672Z,5.10
2023-04-02T00:15:30.666Z,5.20
2023-04-02T00:16:30.752Z,5.20
2023-04-02T00:17:30.635Z,5.00
2023-04-02T00:18:30.662Z,5.80
2023-04-02T00:19:30.627Z,5.70
2023-04-02T00:20:30.631Z,5.30
2023-04-02T00:21:30.659Z,6.10
2023-04-02T00:22:30.631Z,6.20
2023-04-02T00:23:30.569Z,5.80
2023-04-02T00:24:30.565Z,5.70
2023-04-02T00:25:30.585Z,6.60
2023-04-02T00:26:30.547Z,6.60
2023-04-02T00:27:30.562Z,6.50
2023-04-02T00:28:30.520Z,6.40
2023-04-02T00:29:30.516Z,6.60
2023-04-02T00:30:30.505Z,6.40
2023-04-02T00:31:30.490Z,5.50
2023-04-02T00:32:30.550Z,5.90
2023-04-02T00:33:30.466Z,6.30
2023-04-02T00:34:30.477Z,5.70
2023-04-02T00:35:30.442Z,5.80
2023-04-02T00:36:30.440Z,5.70
2023-04-02T00:37:30.429Z,5.70
2023-04-02T00:38:30.428Z,5.60
2023-04-02T00:39:30.418Z,5.50
2023-04-02T00:40:30.380Z,5.20
2023-04-02T00:41:30.364Z,5.40
2023-04-02T00:42:30.354Z,5.00
2023-04-02T00:43:30.341Z,5.40
2023-04-02T00:44:30.377Z,5.70
2023-04-02T00:45:30.314Z,5.50
2023-04-02T00:46:30.362Z,5.50
2023-04-02T00:47:30.327Z,5.90
2023-04-02T00:48:30.289Z,6.30
2023-04-02T00:49:30.273Z,6.90
2023-04-02T00:50:30.294Z,7.40
2023-04-02T00:51:30.244Z,7.10
2023-04-02T00:52:30.246Z,8.00
2023-04-02T00:53:30.300Z,8.70
2023-04-02T00:54:30.232Z,7.60
2023-04-02T00:55:30.204Z,8.20
2023-04-02T00:56:30.216Z,7.50
2023-04-02T00:57:30.227Z,7.00
2023-04-02T00:58:30.176Z,6.30
2023-04-02T00:59:30.182Z,5.80
2023-04-02T01:00:30.185Z,5.20
2023-04-02T01:01:30.170Z,5.10
2023-04-02T01:02:30.241Z,4.40
2023-04-02T01:03:30.375Z,4.30
2023-04-02T01:04:30.110Z,4.00
2023-04-02T01:05:30.072Z,4.90
2023-04-02T01:06:30.073Z,4.40
2023-04-02T01:07:30.087Z,3.60
2023-04-02T01:08:30.056Z,3.00
2023-04-02T01:09:30.041Z,3.10
2023-04-02T01:10:30.069Z,2.90
2023-04-02T01:11:30.000Z,2.80
2023-04-02T01:12:30.038Z,2.90
2023-04-02T01:13:29.998Z,2.30
2023-04-02T01:14:29.987Z,2.30
2023-04-02T01:15:29.995Z,2.20
2023-04-02T01:16:30.030Z,2.20
2023-04-02T01:17:29.960Z,2.30
2023-04-02T01:18:29.932Z,2.00
2023-04-02T01:19:29.912Z,1.90
2023-04-02T01:20:29.915Z,2.20
2023-04-02T01:21:29.922Z,2.00
2023-04-02T01:22:29.898Z,2.20
2023-04-02T01:23:29.883Z,2.00
2023-04-02T01:24:29.860Z,1.90
2023-04-02T01:25:29.848Z,2.00
2023-04-02T01:26:29.889Z,1.90
2023-04-02T01:27:29.838Z,2.00
2023-04-02T01:28:29.801Z,2.00
2023-04-02T01:29:29.809Z,2.00
2023-04-02T01:30:29.783Z,1.90
2023-04-02T01:31:29.819Z,2.10
2023-04-02T01:32:29.837Z,2.00
2023-04-02T01:33:29.752Z,2.20
2023-04-02T01:34:29.744Z,2.10
2023-04-02T01:35:29.723Z,2.50
2023-04-02T01:36:29.704Z,2.50
2023-04-02T01:37:29.768Z,2.90
2023-04-02T01:38:29.702Z,2.70
2023-04-02T01:39:29.701Z,2.80
2023-04-02T01:40:29.652Z,2.60
2023-04-02T01:41:29.648Z,2.90
2023-04-02T01:42:29.697Z,2.90
2023-04-02T01:43:29.673Z,2.80
2023-04-02T01:44:29.630Z,3.00
2023-04-02T01:45:29.618Z,2.60
2023-04-02T01:46:29.674Z,2.70
2023-04-02T01:47:29.663Z,2.80
2023-04-02T01:48:29.601Z,2.60
2023-04-02T01:49:29.551Z,2.60
2023-04-02T01:50:29.560Z,2.50
2023-04-02T01:51:29.544Z,2.40
2023-04-02T01:52:29.531Z,2.20
2023-04-02T01:53:29.574Z,2.50
2023-04-02T01:54:29.502Z,2.20
2023-04-02T01:55:29.531Z,2.20
2023-04-02T01:56:29.472Z,2.40
2023-04-02T01:57:29.568Z,2.60
2023-04-02T01:58:29.450Z,2.50
2023-04-02T01:59:29.447Z,2.40
2023-04-02T02:00:29.493Z,2.70
2023-04-02T02:01:29.431Z,2.90
2023-04-02T02:02:29.482Z,2.40
2023-04-02T02:03:29.434Z,2.10
2023-04-02T02:04:29.394Z,2.20
2023-04-02T02:05:29.368Z,2.20
2023-04-02T02:06:29.384Z,1.80
2023-04-02T02:07:29.340Z,1.80
2023-04-02T02:08:29.372Z,2.40
2023-04-02T02:09:29.327Z,2.30
2023-04-02T02:10:29.317Z,2.40
2023-04-02T02:11:29.338Z,2.60
2023-04-02T02:12:29.295Z,3.00
2023-04-02T02:13:29.298Z,3.50
2023-04-02T02:14:29.306Z,3.10
2023-04-02T02:15:29.269Z,3.50
2023-04-02T02:16:29.296Z,3.20
2023-04-02T02:17:29.285Z,3.30
2023-04-02T02:18:29.243Z,3.20
2023-04-02T02:19:29.261Z,3.50
2023-04-02T02:20:29.209Z,3.30
2023-04-02T02:21:29.259Z,3.10
2023-04-02T02:22:29.171Z,3.30
2023-04-02T02:23:29.172Z,3.30
2023-04-02T02:24:29.163Z,3.80
2023-04-02T02:25:29.176Z,3.40
2023-04-02T02:26:29.178Z,3.80
2023-04-02T02:27:29.127Z,4.10
2023-04-02T02:28:29.100Z,4.50
2023-04-02T02:29:29.130Z,5.30
2023-04-02T02:30:29.095Z,5.40
2023-04-02T02:31:29.132Z,5.80
2023-04-02T02:32:29.113Z,6.60
2023-04-02T02:33:29.043Z,7.10
2023-04-02T02:34:29.084Z,6.80
2023-04-02T02:35:29.040Z,7.20
2023-04-02T02:36:29.071Z,7.90
2023-04-02T02:37:29.017Z,7.50
2023-04-02T02:38:28.988Z,7.80
2023-04-02T02:39:28.989Z,8.10
2023-04-02T02:40:29.028Z,9.10
2023-04-02T02:41:28.989Z,9.00
2023-04-02T02:42:28.969Z,9.20
2023-04-02T02:43:28.939Z,8.40
2023-04-02T02:44:28.945Z,9.20
2023-04-02T02:45:28.921Z,8.70
2023-04-02T02:46:29.013Z,7.70
2023-04-02T02:47:28.918Z,8.50
2023-04-02T02:48:28.878Z,7.50
2023-04-02T02:49:28.860Z,8.00
2023-04-02T02:50:28.864Z,6.80
2023-04-02T02:51:28.843Z,5.80
2023-04-02T02:52:28.859Z,5.90
2023-04-02T02:53:28.809Z,6.20
2023-04-02T02:54:28.818Z,5.20
2023-04-02T02:55:28.797Z,5.10
2023-04-02T02:56:28.772Z,5.00
2023-04-02T02:57:29.024Z,4.90
2023-04-02T02:58:28.787Z,4.70
2023-04-02T02:59:28.729Z,4.90
2023-04-02T03:00:28.730Z,4.60
2023-04-02T03:01:28.788Z,4.20
2023-04-02T03:02:28.798Z,4.20
2023-04-02T03:03:28.825Z,3.50
2023-04-02T03:04:28.748Z,3.00
2023-04-02T03:05:28.734Z,2.80
2023-04-02T03:06:28.657Z,2.90
2023-04-02T03:07:28.659Z,3.00
2023-04-02T03:08:28.651Z,2.70
2023-04-02T03:09:28.612Z,3.00
2023-04-02T03:10:28.642Z,2.70
2023-04-02T03:11:28.601Z,2.90
2023-04-02T03:12:28.598Z,2.70
2023-04-02T03:13:28.581Z,2.80
2023-04-02T03:14:28.586Z,2.80
2023-04-02T03:15:28.636Z,2.70
2023-04-02T03:16:28.524Z,2.80
2023-04-02T03:17:28.579Z,2.70
2023-04-02T03:18:28.523Z,3.10
2023-04-02T03:19:28.494Z,3.00
2023-04-02T03:20:28.501Z,2.90
2023-04-02T03:21:28.507Z,3.30
2023-04-02T03:22:28.559Z,3.00
2023-04-02T03:23:28.448Z,2.90
2023-04-02T03:24:28.457Z,2.80
2023-04-02T03:25:28.436Z,2.70
2023-04-02T03:26:28.427Z,2.80
2023-04-02T03:27:28.457Z,2.90
2023-04-02T03:28:28.449Z,3.00
2023-04-02T03:29:28.397Z,3.50
2023-04-02T03:30:28.403Z,3.30
2023-04-02T03:31:28.397Z,3.70
2023-04-02T03:32:28.370Z,4.40
2023-04-02T03:33:28.328Z,5.00
2023-04-02T03:34:28.326Z,5.00
2023-04-02T03:35:28.353Z,6.00
2023-04-02T03:36:28.292Z,5.80
2023-04-02T03:37:28.301Z,6.60
2023-04-02T03:38:28.290Z,6.70
2023-04-02T03:39:28.276Z,7.00
2023-04-02T03:40:28.297Z,6.90
2023-04-02T03:41:28.264Z,6.90
2023-04-02T03:42:28.241Z,7.60
2023-04-02T03:43:28.219Z,6.90
2023-04-02T03:44:28.197Z,7.20
2023-04-02T03:45:28.204Z,7.50
2023-04-02T03:46:28.246Z,7.20
2023-04-02T03:47:28.269Z,7.00
2023-04-02T03:48:28.154Z,7.60
2023-04-02T03:49:28.133Z,7.30
2023-04-02T03:50:28.142Z,6.80
2023-04-02T03:51:28.142Z,6.70
2023-04-02T03:52:28.136Z,6.80
2023-04-02T03:53:28.146Z,7.00
2023-04-02T03:54:28.147Z,6.20
2023-04-02T03:55:28.101Z,7.10
2023-04-02T03:56:28.086Z,6.80
2023-04-02T03:57:28.118Z,6.50
2023-04-02T03:58:28.044Z,6.10
2023-04-02T03:59:28.088Z,6.50
2023-04-02T04:00:28.026Z,4.50
2023-04-02T04:01:27.998Z,4.20
2023-04-02T04:02:28.065Z,3.80
2023-04-02T04:03:28.007Z,4.20
2023-04-02T04:04:28.006Z,4.40
2023-04-02T04:05:27.959Z,3.90
2023-04-02T04:06:27.943Z,3.90
2023-04-02T04:07:27.949Z,4.10
2023-04-02T04:08:27.901Z,4.00
2023-04-02T04:09:27.931Z,4.40
2023-04-02T04:10:27.882Z,4.70
2023-04-02T04:11:27.974Z,4.70
2023-04-02T04:12:27.903Z,5.00
2023-04-02T04:13:27.877Z,5.00
2023-04-02T04:14:27.876Z,5.60
2023-04-02T04:15:27.893Z,5.80
2023-04-02T04:16:27.855Z,5.20
2023-04-02T04:17:27.842Z,5.10
2023-04-02T04:18:27.814Z,5.70
2023-04-02T04:19:27.834Z,5.30
2023-04-02T04:20:27.776Z,5.10
2023-04-02T04:21:27.788Z,5.40
2023-04-02T04:22:27.766Z,5.30
2023-04-02T04:23:27.747Z,5.20
2023-04-02T04:24:27.717Z,4.90
2023-04-02T04:25:27.763Z,5.60
2023-04-02T04:26:27.716Z,5.00
2023-04-02T04:27:27.688Z,5.30
2023-04-02T04:28:27.694Z,5.30
2023-04-02T04:29:27.668Z,5.50
2023-04-02T04:30:27.650Z,5.70
2023-04-02T04:31:27.728Z,5.70
2023-04-02T04:32:27.908Z,6.10
2023-04-02T04:33:27.620Z,6.00
2023-04-02T04:34:27.626Z,5.70
2023-04-02T04:35:27.660Z,4.70
2023-04-02T04:36:27.616Z,5.50
2023-04-02T04:37:27.579Z,5.70
2023-04-02T04:38:27.610Z,5.30
2023-04-02T04:39:27.574Z,5.40
2023-04-02T04:40:27.563Z,5.40
2023-04-02T04:41:27.536Z,5.30
2023-04-02T04:42:27.541Z,5.50
2023-04-02T04:43:27.526Z,5.50
2023-04-02T04:44:27.523Z,5.40
2023-04-02T04:45:27.467Z,5.30
2023-04-02T04:46:27.551Z,5.40
2023-04-02T04:47:27.509Z,5.70
2023-04-02T04:48:27.464Z,5.90
2023-04-02T04:49:27.439Z,5.80
2023-04-02T04:50:27.465Z,5.90
2023-04-02T04:51:27.431Z,5.80
2023-04-02T04:52:27.387Z,6.90
2023-04-02T04:53:27.386Z,6.20
2023-04-02T04:54:27.375Z,6.00
2023-04-02T04:55:27.376Z,5.70
2023-04-02T04:56:27.337Z,5.90
2023-04-02T04:57:27.442Z,5.10
2023-04-02T04:58:27.321Z,4.90
2023-04-02T04:59:27.381Z,4.70
2023-04-02T05:00:27.345Z,5.00
2023-04-02T05:01:27.396Z,5.10
2023-04-02T05:02:27.324Z,5.60
2023-04-02T05:03:27.318Z,5.40
2023-04-02T05:04:27.288Z,4.70
2023-04-02T05:05:27.291Z,5.30
2023-04-02T05:06:27.351Z,6.00
2023-04-02T05:07:27.240Z,6.00
2023-04-02T05:08:27.230Z,6.00
2023-04-02T05:09:27.215Z,6.30
2023-04-02T05:10:27.190Z,5.60
2023-04-02T05:11:27.179Z,5.10
2023-04-02T05:12:27.168Z,5.10
2023-04-02T05:13:27.176Z,5.60
2023-04-02T05:14:27.123Z,5.40
2023-04-02T05:15:27.129Z,5.50
2023-04-02T05:16:27.214Z,3.60
2023-04-02T05:17:27.169Z,3.80
2023-04-02T05:18:27.106Z,3.30
2023-04-02T05:19:27.117Z,3.50
2023-04-02T05:20:27.077Z,3.60
2023-04-02T05:21:27.069Z,3.40
2023-04-02T05:22:27.073Z,3.10
2023-04-02T05:23:27.061Z,3.50
2023-04-02T05:24:27.061Z,3.60
2023-04-02T05:25:27.022Z,3.30
2023-04-02T05:26:26.973Z,3.70
2023-04-02T05:27:27.007Z,4.00
2023-04-02T05:28:26.973Z,3.80
2023-04-02T05:29:26.947Z,4.00
2023-04-02T05:30:26.969Z,3.90
2023-04-02T05:31:27.001Z,4.10
2023-04-02T05:32:26.943Z,4.50
2023-04-02T05:33:26.985Z,4.40
2023-04-02T05:34:26.917Z,4.60
2023-04-02T05:35:26.882Z,5.40
2023-04-02T05:36:26.939Z,5.00
2023-04-02T05:37:26.868Z,5.50
2023-04-02T05:38:26.840Z,6.40
2023-04-02T05:39:26.913Z,6.40
2023-04-02T05:40:26.828Z,5.50
2023-04-02T05:41:26.877Z,5.80
2023-04-02T05:42:26.808Z,5.80
2023-04-02T05:43:26.796Z,5.60
2023-04-02T05:44:26.776Z,5.60
2023-04-02T05:45:26.798Z,5.90
2023-04-02T05:46:26.835Z,5.90
2023-04-02T05:47:26.765Z,6.40
2023-04-02T05:48:26.731Z,6.30
2023-04-02T05:49:26.768Z,6.50
2023-04-02T05:50:26.729Z,6.30
2023-04-02T05:51:26.698Z,6.40
2023-04-02T05:52:26.689Z,7.00
2023-04-02T05:53:26.675Z,7.10
2023-04-02T05:54:26.661Z,7.50
2023-04-02T05:55:26.672Z,7.10
2023-04-02T05:56:26.635Z,7.40
2023-04-02T05:57:39.513Z,7.10
2023-04-02T05:59:26.625Z,7.60
2023-04-02T06:00:26.602Z,7.30
2023-04-02T06:01:26.553Z,7.10
2023-04-02T06:02:26.655Z,7.00
2023-04-02T06:03:26.639Z,7.30
2023-04-02T06:04:26.546Z,7.00
2023-04-02T06:05:26.565Z,7.00
2023-04-02T06:06:26.546Z,7.00
2023-04-02T06:07:26.504Z,7.40
2023-04-02T06:08:26.499Z,6.50
2023-04-02T06:09:26.481Z,6.90
2023-04-02T06:10:26.494Z,7.00
2023-04-02T06:11:26.455Z,6.60
2023-04-02T06:12:26.518Z,6.90
2023-04-02T06:13:26.426Z,7.20
2023-04-02T06:14:26.453Z,7.20
2023-04-02T06:15:26.397Z,7.80
2023-04-02T06:16:26.431Z,6.80
2023-04-02T06:17:26.432Z,6.80
2023-04-02T06:18:26.383Z,6.70
2023-04-02T06:19:26.361Z,7.00
2023-04-02T06:20:26.371Z,7.10
2023-04-02T06:21:26.338Z,7.00
2023-04-02T06:22:26.325Z,6.80
2023-04-02T06:23:26.296Z,7.10
2023-04-02T06:24:26.336Z,6.10
2023-04-02T06:25:26.304Z,6.70
2023-04-02T06:26:26.278Z,6.80
2023-04-02T06:27:26.261Z,6.40
2023-04-02T06:28:26.268Z,6.50
2023-04-02T06:29:26.247Z,6.90
2023-04-02T06:30:26.283Z,6.10
2023-04-02T06:31:26.302Z,6.00
2023-04-02T06:32:26.249Z,5.50
2023-04-02T06:33:26.178Z,4.90
2023-04-02T06:34:26.182Z,5.30
2023-04-02T06:35:26.183Z,5.90
2023-04-02T06:36:26.185Z,4.90
2023-04-02T06:37:26.131Z,5.90
2023-04-02T06:38:26.125Z,5.90
2023-04-02T06:39:26.165Z,6.10
2023-04-02T06:40:26.150Z,5.90
2023-04-02T06:41:26.098Z,6.20
2023-04-02T06:42:26.083Z,5.40
2023-04-02T06:43:26.097Z,6.10
2023-04-02T06:44:26.086Z,6.80
2023-04-02T06:45:26.030Z,5.70
2023-04-02T06:46:26.159Z,5.60
2023-04-02T06:47:26.062Z,5.60
2023-04-02T06:48:26.014Z,6.10
2023-04-02T06:49:26.011Z,5.40
2023-04-02T06:50:25.994Z,5.50
2023-04-02T06:51:25.998Z,5.20
2023-04-02T06:52:25.983Z,4.60
2023-04-02T06:53:25.970Z,4.30
2023-04-02T06:54:25.964Z,4.20
2023-04-02T06:55:25.976Z,4.30
2023-04-02T06:56:25.962Z,4.00
2023-04-02T06:57:25.922Z,4.20
2023-04-02T06:58:25.905Z,3.50
2023-04-02T06:59:25.884Z,3.90
2023-04-02T07:00:25.888Z,3.00
2023-04-02T07:01:25.897Z,3.50
2023-04-02T07:02:25.885Z,3.50
2023-04-02T07:03:25.819Z,3.50
2023-04-02T07:04:25.822Z,3.70
2023-04-02T07:05:25.818Z,3.20
2023-04-02T07:06:25.794Z,3.50
2023-04-02T07:07:25.838Z,3.40
2023-04-02T07:08:25.771Z,3.40
2023-04-02T07:09:25.777Z,3.40
2023-04-02T07:10:25.785Z,3.50
2023-04-02T07:11:25.729Z,3.20
2023-04-02T07:12:25.772Z,3.00
2023-04-02T07:13:25.705Z,2.80
2023-04-02T07:14:25.698Z,2.50
2023-04-02T07:15:25.681Z,2.00
2023-04-02T07:16:25.787Z,2.70
2023-04-02T07:17:25.671Z,3.10
2023-04-02T07:18:25.664Z,2.90
2023-04-02T07:19:25.630Z,3.30
2023-04-02T07:20:25.614Z,3.30
2023-04-02T07:21:25.658Z,3.60
2023-04-02T07:22:25.604Z,3.30
2023-04-02T07:23:25.617Z,3.30
2023-04-02T07:24:25.590Z,3.60
2023-04-02T07:25:25.562Z,3.60
2023-04-02T07:26:25.554Z,3.70
2023-04-02T07:27:25.542Z,3.40
2023-04-02T07:28:25.657Z,3.70
2023-04-02T07:29:25.548Z,3.40
2023-04-02T07:30:25.499Z,3.50
2023-04-02T07:31:25.541Z,3.30
2023-04-02T07:32:25.484Z,3.40
2023-04-02T07:33:25.453Z,3.50
2023-04-02T07:34:25.498Z,3.90
2023-04-02T07:35:25.424Z,3.40
2023-04-02T07:36:25.416Z,3.30
2023-04-02T07:37:25.417Z,3.20
2023-04-02T07:38:25.439Z,3.10
2023-04-02T07:39:25.414Z,3.30
2023-04-02T07:40:25.377Z,3.00
2023-04-02T07:41:25.374Z,3.10
2023-04-02T07:42:25.365Z,2.60
2023-04-02T07:43:25.349Z,2.90
2023-04-02T07:44:25.347Z,2.70
2023-04-02T07:45:25.336Z,3.00
2023-04-02T07:46:25.301Z,2.70
2023-04-02T07:47:25.317Z,3.10
2023-04-02T07:48:25.303Z,2.70
2023-04-02T07:49:25.281Z,2.90
2023-04-02T07:50:25.307Z,3.10
2023-04-02T07:51:25.269Z,3.10
2023-04-02T07:52:25.241Z,2.80
2023-04-02T07:53:25.228Z,3.20
2023-04-02T07:54:25.240Z,2.80
2023-04-02T07:55:25.229Z,3.10
2023-04-02T07:56:25.243Z,3.00
2023-04-02T07:57:25.272Z,3.10
2023-04-02T07:58:25.168Z,3.20
2023-04-02T07:59:25.144Z,3.00
2023-04-02T08:00:25.143Z,3.50
2023-04-02T08:01:25.130Z,3.20
2023-04-02T08:02:25.162Z,3.20
2023-04-02T08:03:25.186Z,3.20
2023-04-02T08:04:25.186Z,3.30
2023-04-02T08:05:25.136Z,2.90
2023-04-02T08:06:25.067Z,3.30
2023-04-02T08:07:25.050Z,2.80
2023-04-02T08:08:25.026Z,3.10
2023-04-02T08:09:25.172Z,3.20
2023-04-02T08:10:25.020Z,3.30
2023-04-02T08:11:25.044Z,2.90
2023-04-02T08:12:25.017Z,3.20
2023-04-02T08:13:24.990Z,3.40
2023-04-02T08:14:24.988Z,2.70
2023-04-02T08:15:25.055Z,2.80
2023-04-02T08:16:24.992Z,3.10
2023-04-02T08:17:25.014Z,3.10
2023-04-02T08:18:24.950Z,2.80
2023-04-02T08:19:24.898Z,3.50
2023-04-02T08:20:24.909Z,3.60
2023-04-02T08:21:24.951Z,3.60
2023-04-02T08:22:24.903Z,3.60
2023-04-02T08:23:24.888Z,3.60
2023-04-02T08:24:24.878Z,3.60
2023-04-02T08:25:24.852Z,3.30
2023-04-02T08:26:24.848Z,3.30
2023-04-02T08:27:24.834Z,4.00
2023-04-02T08:28:24.809Z,3.50
2023-04-02T08:29:24.814Z,3.70
2023-04-02T08:30:24.770Z,3.70
2023-04-02T08:31:24.821Z,3.90
2023-04-02T08:32:24.768Z,3.50
2023-04-02T08:33:24.763Z,4.00
2023-04-02T08:34:24.754Z,3.80
2023-04-02T08:35:24.717Z,4.50
2023-04-02T08:36:24.761Z,4.00
2023-04-02T08:37:24.697Z,3.70
2023-04-02T08:38:24.688Z,3.70
2023-04-02T08:39:24.710Z,4.10
2023-04-02T08:40:24.665Z,3.50
2023-04-02T08:41:24.661Z,3.60
2023-04-02T08:42:24.699Z,4.10
2023-04-02T08:43:24.645Z,3.50
2023-04-02T08:44:24.637Z,3.60
2023-04-02T08:45:25.584Z,3.20
2023-04-02T08:46:24.670Z,4.00
2023-04-02T08:47:24.593Z,3.60
2023-04-02T08:48:24.570Z,3.40
2023-04-02T08:49:24.545Z,3.40
2023-04-02T08:50:24.589Z,3.30
2023-04-02T08:51:24.538Z,3.20
2023-04-02T08:52:24.527Z,3.60
2023-04-02T08:53:24.550Z,3.70
2023-04-02T08:54:24.511Z,3.50
2023-04-02T08:55:24.528Z,3.80
2023-04-02T08:56:24.472Z,3.70
2023-04-02T08:57:24.496Z,3.40
2023-04-02T08:58:24.448Z,3.50
2023-04-02T08:59:24.422Z,3.50
2023-04-02T09:00:24.473Z,3.20
2023-04-02T09:01:24.459Z,3.60
2023-04-02T09:02:24.485Z,3.70
2023-04-02T09:03:24.408Z,3.20
2023-04-02T09:04:24.391Z,3.80
2023-04-02T09:05:24.384Z,3.30
2023-04-02T09:06:24.339Z,3.60
2023-04-02T09:07:24.339Z,3.00
2023-04-02T09:08:24.359Z,3.40
2023-04-02T09:09:24.303Z,3.30
2023-04-02T09:10:24.313Z,3.30
2023-04-02T09:11:24.319Z,3.70
2023-04-02T09:12:24.292Z,3.30
2023-04-02T09:13:24.301Z,2.90
2023-04-02T09:14:24.267Z,3.40
2023-04-02T09:15:24.244Z,3.40
2023-04-02T09:16:24.279Z,3.20
2023-04-02T09:17:24.231Z,2.50
2023-04-02T09:18:24.295Z,2.60
2023-04-02T09:19:24.187Z,2.90
2023-04-02T09:20:24.200Z,2.50
2023-04-02T09:21:24.163Z,3.00
2023-04-02T09:22:24.162Z,2.80
2023-04-02T09:23:24.202Z,2.60
2023-04-02T09:24:24.154Z,2.60
2023-04-02T09:25:24.162Z,2.60
2023-04-02T09:26:24.173Z,2.50
2023-04-02T09:27:24.099Z,2.50
2023-04-02T09:28:24.091Z,2.40
2023-04-02T09:29:24.083Z,2.40
2023-04-02T09:30:24.070Z,2.60
2023-04-02T09:31:24.133Z,2.10
2023-04-02T09:32:24.100Z,2.40
2023-04-02T09:33:24.041Z,2.30
2023-04-02T09:34:24.018Z,2.10
2023-04-02T09:35:36.383Z,2.30
2023-04-02T09:36:25.072Z,2.10
2023-04-02T09:37:23.971Z,2.10
2023-04-02T09:38:23.964Z,2.20
2023-04-02T09:39:23.987Z,2.20
2023-04-02T09:40:23.970Z,2.30
2023-04-02T09:41:23.939Z,2.10
2023-04-02T09:42:23.945Z,2.60
2023-04-02T09:43:23.955Z,2.10
2023-04-02T09:44:23.926Z,2.20
2023-04-02T09:45:23.932Z,2.10
2023-04-02T09:46:23.950Z,2.40
2023-04-02T09:47:23.904Z,2.30
2023-04-02T09:48:23.876Z,2.20
2023-04-02T09:49:23.845Z,1.90
2023-04-02T09:50:23.900Z,1.80
2023-04-02T09:51:23.862Z,2.10
2023-04-02T09:52:23.820Z,2.00
2023-04-02T09:53:23.795Z,2.10
2023-04-02T09:54:23.786Z,2.10
2023-04-02T09:55:23.782Z,1.90
2023-04-02T09:56:23.824Z,2.50
2023-04-02T09:57:24.037Z,2.00
2023-04-02T09:58:23.716Z,2.00
2023-04-02T09:59:23.729Z,2.00
2023-04-02T10:01:23.776Z,2.10
2023-04-02T10:02:23.733Z,2.50
2023-04-02T10:03:23.711Z,2.10
2023-04-02T10:04:26.254Z,2.60
2023-04-02T10:05:38.903Z,2.10
2023-04-02T10:06:24.653Z,2.00
2023-04-02T10:07:23.638Z,1.90
2023-04-02T10:08:23.599Z,1.90
2023-04-02T10:09:23.664Z,2.20
2023-04-02T10:10:25.249Z,2.10
2023-04-02T10:11:26.806Z,1.70
2023-04-02T10:12:24.561Z,1.70
2023-04-02T10:13:23.619Z,1.60
2023-04-02T10:14:23.546Z,1.60
2023-04-02T10:15:23.552Z,1.80
2023-04-02T10:16:24.994Z,1.50
2023-04-02T10:17:23.551Z,1.60
2023-04-02T10:18:23.512Z,1.60
2023-04-02T10:19:23.472Z,1.80
2023-04-02T10:20:23.496Z,1.50
2023-04-02T10:21:23.454Z,1.50
2023-04-02T10:22:23.446Z,1.70
2023-04-02T10:23:23.461Z,1.70
2023-04-02T10:24:23.427Z,1.60
2023-04-02T10:25:23.398Z,1.70
2023-04-02T10:26:23.433Z,1.90
2023-04-02T10:27:23.390Z,1.70
2023-04-02T10:28:23.374Z,1.50
2023-04-02T10:29:23.378Z,1.50
2023-04-02T10:30:23.362Z,1.70
2023-04-02T10:31:23.432Z,1.70
2023-04-02T10:32:23.336Z,1.70
2023-04-02T10:33:23.354Z,2.00
2023-04-02T10:34:23.303Z,1.60
2023-04-02T10:35:23.352Z,1.60
2023-04-02T10:36:23.313Z,1.80
2023-04-02T10:37:23.269Z,1.60
2023-04-02T10:38:23.259Z,1.60
2023-04-02T10:39:23.328Z,1.90
2023-04-02T10:40:23.255Z,2.00
2023-04-02T10:41:23.262Z,1.70
2023-04-02T10:42:23.191Z,2.20
2023-04-02T10:43:23.405Z,1.60
2023-04-02T10:44:23.214Z,1.60
2023-04-02T10:45:23.154Z,2.30
2023-04-02T10:46:25.392Z,1.80
2023-04-02T10:47:23.186Z,1.80
2023-04-02T10:48:23.148Z,1.70
2023-04-02T10:49:23.120Z,1.70
2023-04-02T10:50:23.106Z,1.90
2023-04-02T10:51:23.118Z,2.00
2023-04-02T10:52:23.098Z,1.90
2023-04-02T10:53:23.260Z,1.80
2023-04-02T10:54:23.071Z,2.00
2023-04-02T10:55:23.059Z,1.80
2023-04-02T10:56:23.076Z,1.70
2023-04-02T10:57:23.086Z,2.00
2023-04-02T10:58:23.066Z,1.80
2023-04-02T10:59:23.011Z,1.80
2023-04-02T11:00:22.992Z,1.80
2023-04-02T11:01:23.007Z,1.70
2023-04-02T11:02:23.066Z,1.80
2023-04-02T11:03:23.085Z,1.90
2023-04-02T11:04:22.947Z,2.00
2023-04-02T11:05:22.918Z,2.20
2023-04-02T11:06:22.935Z,2.00
2023-04-02T11:07:22.939Z,2.00
2023-04-02T11:08:22.932Z,1.80
2023-04-02T11:09:22.891Z,1.90
2023-04-02T11:10:22.874Z,2.10
2023-04-02T11:11:22.869Z,1.60
2023-04-02T11:12:22.911Z,1.60
2023-04-02T11:13:22.955Z,1.60
2023-04-02T11:14:22.831Z,2.00
2023-04-02T11:15:22.839Z,1.60
2023-04-02T11:16:22.852Z,2.00
2023-04-02T11:17:22.827Z,1.70
2023-04-02T11:18:22.797Z,1.70
2023-04-02T11:19:22.795Z,1.70
2023-04-02T11:20:22.756Z,1.80
2023-04-02T11:21:22.781Z,1.90
2023-04-02T11:22:22.720Z,1.60
2023-04-02T11:23:22.817Z,1.70
2023-04-02T11:24:22.709Z,1.90
2023-04-02T11:25:22.726Z,1.70
2023-04-02T11:26:22.724Z,1.50
2023-04-02T11:27:22.741Z,1.90
2023-04-02T11:28:23.961Z,2.00
2023-04-02T11:29:22.647Z,1.90
2023-04-02T11:30:22.629Z,1.70
2023-04-02T11:31:22.682Z,1.70
2023-04-02T11:32:22.733Z,1.80
2023-04-02T11:33:34.082Z,1.80
2023-04-02T11:34:23.602Z,2.00
2023-04-02T11:35:22.575Z,1.90
2023-04-02T11:36:22.599Z,1.90
2023-04-02T11:37:22.528Z,1.80
2023-04-02T11:38:22.602Z,2.20
2023-04-02T11:39:22.532Z,2.00
2023-04-02T11:40:22.537Z,2.00
2023-04-02T11:41:22.498Z,2.20
2023-04-02T11:42:22.515Z,1.90
2023-04-02T11:43:22.460Z,1.90
2023-04-02T11:44:22.479Z,2.30
2023-04-02T11:45:22.476Z,1.80
2023-04-02T11:46:22.499Z,2.00
2023-04-02T11:47:22.476Z,2.50
2023-04-02T11:48:22.403Z,2.10
2023-04-02T11:49:22.423Z,2.20
2023-04-02T11:50:22.408Z,2.40
2023-04-02T11:51:22.446Z,2.30
2023-04-02T11:52:22.384Z,2.30
2023-04-02T11:53:22.343Z,2.40
2023-04-02T11:54:22.351Z,2.30
2023-04-02T11:55:22.339Z,2.20
2023-04-02T11:56:22.332Z,2.20
2023-04-02T11:57:22.344Z,2.50
2023-04-02T11:58:22.295Z,2.40
2023-04-02T11:59:22.260Z,2.40
2023-04-02T12:00:22.271Z,2.20
2023-04-02T12:01:22.247Z,2.30
2023-04-02T12:02:22.304Z,2.20
2023-04-02T12:03:22.281Z,2.20
2023-04-02T12:04:22.207Z,2.10
2023-04-02T12:05:22.222Z,2.10
2023-04-02T12:06:22.224Z,2.40
2023-04-02T12:07:22.199Z,2.20
2023-04-02T12:08:22.161Z,2.10
2023-04-02T12:09:22.208Z,2.10
2023-04-02T12:10:22.167Z,1.90
2023-04-02T12:11:22.127Z,2.10
2023-04-02T12:12:22.142Z,2.10
2023-04-02T12:13:22.104Z,2.20
2023-04-02T12:14:22.124Z,1.90
2023-04-02T12:15:22.079Z,2.30
2023-04-02T12:16:22.088Z,2.60
2023-04-02T12:17:22.226Z,2.40
2023-04-02T12:18:22.089Z,2.40
2023-04-02T12:19:22.068Z,2.40
2023-04-02T12:20:22.044Z,2.40
2023-04-02T12:21:21.997Z,2.70
2023-04-02T12:22:22.000Z,2.30
2023-04-02T12:23:22.041Z,2.50
2023-04-02T12:24:21.975Z,2.50
2023-04-02T12:25:22.003Z,2.50
2023-04-02T12:26:23.057Z,2.50
2023-04-02T12:27:21.934Z,2.20
2023-04-02T12:28:21.923Z,2.20
2023-04-02T12:29:21.954Z,2.50
2023-04-02T12:30:21.919Z,2.10
2023-04-02T12:31:21.951Z,2.20
2023-04-02T12:32:21.936Z,2.10
2023-04-02T12:33:21.880Z,2.50
2023-04-02T12:34:21.896Z,2.80
2023-04-02T12:35:21.876Z,2.30
2023-04-02T12:36:21.907Z,1.90
2023-04-02T12:37:21.813Z,2.20
2023-04-02T12:38:21.837Z,2.30
2023-04-02T12:39:21.822Z,1.90
2023-04-02T12:40:21.797Z,2.10
2023-04-02T12:41:21.776Z,1.90
2023-04-02T12:42:21.755Z,2.00
2023-04-02T12:43:21.745Z,2.30
2023-04-02T12:44:21.776Z,1.80
2023-04-02T12:45:21.739Z,1.90
2023-04-02T12:46:21.734Z,1.80
2023-04-02T12:47:21.689Z,1.90
2023-04-02T12:48:21.709Z,1.90
2023-04-02T12:49:21.667Z,2.20
2023-04-02T12:50:21.680Z,1.90
2023-04-02T12:51:21.692Z,2.30
2023-04-02T12:52:21.657Z,2.00
2023-04-02T12:53:21.649Z,2.20
2023-04-02T12:54:21.644Z,2.20
2023-04-02T12:55:21.609Z,2.00
2023-04-02T12:56:21.613Z,1.70
2023-04-02T12:57:21.642Z,2.10
2023-04-02T12:58:21.599Z,2.10
2023-04-02T12:59:21.582Z,1.60
2023-04-02T13:00:21.562Z,2.30
2023-04-02T13:01:21.609Z,2.10
2023-04-02T13:02:21.585Z,1.90
2023-04-02T13:03:21.707Z,1.90
2023-04-02T13:04:21.560Z,2.30
2023-04-02T13:05:21.511Z,2.40
2023-04-02T13:06:21.482Z,2.20
2023-04-02T13:07:21.512Z,2.10
2023-04-02T13:08:21.509Z,1.90
2023-04-02T13:09:21.446Z,1.90
2023-04-02T13:10:21.450Z,1.80
2023-04-02T13:11:21.409Z,1.80
2023-04-02T13:12:21.435Z,1.80
2023-04-02T13:13:21.446Z,2.00
2023-04-02T13:14:21.396Z,2.30
2023-04-02T13:15:21.452Z,2.40
2023-04-02T13:16:21.435Z,2.20
2023-04-02T13:17:21.359Z,2.00
2023-04-02T13:18:21.360Z,2.10
2023-04-02T13:19:21.346Z,2.50
2023-04-02T13:20:21.343Z,1.90